sensor_id;sensor_type;location;lat;lon;timestamp;P1;durP1;ratioP1;P2;durP2;ratioP2
37201;SDS011;37799;52.390;6.136;2022-09-09T00:02:11;5.53;;;0.52;;
37201;SDS011;37799;52.390;6.136;2022-09-09T00:04:43;2.97;;;0.47;;
37201;SDS011;37799;52.390;6.136;2022-09-09T00:07:25;5.68;;;1.13;;
37201;SDS011;37799;52.390;6.136;2022-09-09T00:15:22;2.45;;;0.60;;
37201;SDS011;37799;52.390;6.136;2022-09-09T00:20:29;3.85;;;0.70;;
37201;SDS011;37799;52.390;6.136;2022-09-09T00:23:24;1.83;;;0.50;;
37201;SDS011;37799;52.390;6.136;2022-09-09T00:28:20;1.93;;;0.60;;
37201;SDS011;37799;52.390;6.136;2022-09-09T00:30:47;3.15;;;0.80;;
37201;SDS011;37799;52.390;6.136;2022-09-09T00:33:13;1.67;;;0.30;;
37201;SDS011;37799;52.390;6.136;2022-09-09T00:35:50;1.40;;;0.32;;
37201;SDS011;37799;52.390;6.136;2022-09-09T00:38:19;5.45;;;0.93;;
37201;SDS011;37799;52.390;6.136;2022-09-09T00:40:52;2.60;;;0.60;;
37201;SDS011;37799;52.390;6.136;2022-09-09T00:43:33;3.33;;;0.50;;
37201;SDS011;37799;52.390;6.136;2022-09-09T00:51:27;2.67;;;0.68;;
37201;SDS011;37799;52.390;6.136;2022-09-09T00:54:11;2.78;;;0.60;;
37201;SDS011;37799;52.390;6.136;2022-09-09T00:59:56;1.95;;;0.47;;
37201;SDS011;37799;52.390;6.136;2022-09-09T01:05:44;4.90;;;0.87;;
37201;SDS011;37799;52.390;6.136;2022-09-09T01:08:34;2.00;;;0.43;;
37201;SDS011;37799;52.390;6.136;2022-09-09T01:11:03;3.13;;;0.50;;
37201;SDS011;37799;52.390;6.136;2022-09-09T01:13:30;2.78;;;0.60;;
37201;SDS011;37799;52.390;6.136;2022-09-09T01:16:00;2.00;;;0.52;;
37201;SDS011;37799;52.390;6.136;2022-09-09T01:18:28;3.00;;;0.70;;
37201;SDS011;37799;52.390;6.136;2022-09-09T01:21:12;3.92;;;0.57;;
37201;SDS011;37799;52.390;6.136;2022-09-09T01:23:56;3.20;;;0.88;;
37201;SDS011;37799;52.390;6.136;2022-09-09T01:26:44;2.90;;;0.40;;
37201;SDS011;37799;52.390;6.136;2022-09-09T01:29:12;4.47;;;0.70;;
37201;SDS011;37799;52.390;6.136;2022-09-09T01:31:40;2.30;;;0.43;;
37201;SDS011;37799;52.390;6.136;2022-09-09T01:34:11;1.58;;;0.30;;
37201;SDS011;37799;52.390;6.136;2022-09-09T01:36:38;2.35;;;0.57;;
37201;SDS011;37799;52.390;6.136;2022-09-09T01:39:11;2.20;;;0.50;;
37201;SDS011;37799;52.390;6.136;2022-09-09T01:41:37;1.92;;;0.60;;
37201;SDS011;37799;52.390;6.136;2022-09-09T01:44:03;2.88;;;0.60;;
37201;SDS011;37799;52.390;6.136;2022-09-09T01:46:29;2.78;;;0.47;;
37201;SDS011;37799;52.390;6.136;2022-09-09T01:48:54;8.73;;;1.08;;
37201;SDS011;37799;52.390;6.136;2022-09-09T01:51:21;2.25;;;0.52;;
37201;SDS011;37799;52.390;6.136;2022-09-09T01:53:47;2.78;;;0.60;;
37201;SDS011;37799;52.390;6.136;2022-09-09T01:58:47;2.17;;;0.30;;
37201;SDS011;37799;52.390;6.136;2022-09-09T02:01:38;3.17;;;0.65;;
37201;SDS011;37799;52.390;6.136;2022-09-09T02:06:57;2.15;;;0.50;;
37201;SDS011;37799;52.390;6.136;2022-09-09T02:09:25;3.67;;;0.50;;
37201;SDS011;37799;52.390;6.136;2022-09-09T02:11:59;2.22;;;0.57;;
37201;SDS011;37799;52.390;6.136;2022-09-09T02:14:33;4.72;;;0.60;;
37201;SDS011;37799;52.390;6.136;2022-09-09T02:17:07;2.67;;;0.65;;
37201;SDS011;37799;52.390;6.136;2022-09-09T02:19:37;5.43;;;1.08;;
37201;SDS011;37799;52.390;6.136;2022-09-09T02:22:07;2.95;;;0.50;;
37201;SDS011;37799;52.390;6.136;2022-09-09T02:24:33;3.00;;;0.70;;
37201;SDS011;37799;52.390;6.136;2022-09-09T02:27:01;3.40;;;0.60;;
37201;SDS011;37799;52.390;6.136;2022-09-09T02:29:31;2.65;;;0.70;;
37201;SDS011;37799;52.390;6.136;2022-09-09T02:32:01;2.67;;;0.65;;
37201;SDS011;37799;52.390;6.136;2022-09-09T02:34:31;3.25;;;0.68;;
37201;SDS011;37799;52.390;6.136;2022-09-09T02:37:01;3.85;;;0.70;;
37201;SDS011;37799;52.390;6.136;2022-09-09T02:39:28;2.05;;;0.52;;
37201;SDS011;37799;52.390;6.136;2022-09-09T02:41:54;5.18;;;1.02;;
37201;SDS011;37799;52.390;6.136;2022-09-09T02:44:19;3.37;;;0.67;;
37201;SDS011;37799;52.390;6.136;2022-09-09T02:53:00;2.67;;;0.50;;
37201;SDS011;37799;52.390;6.136;2022-09-09T02:58:01;3.15;;;0.80;;
37201;SDS011;37799;52.390;6.136;2022-09-09T03:00:31;3.40;;;0.77;;
37201;SDS011;37799;52.390;6.136;2022-09-09T03:02:57;1.65;;;0.40;;
37201;SDS011;37799;52.390;6.136;2022-09-09T03:05:22;4.75;;;0.77;;
37201;SDS011;37799;52.390;6.136;2022-09-09T03:07:48;4.43;;;0.70;;
37201;SDS011;37799;52.390;6.136;2022-09-09T03:10:15;6.63;;;0.90;;
37201;SDS011;37799;52.390;6.136;2022-09-09T03:12:42;2.67;;;0.57;;
37201;SDS011;37799;52.390;6.136;2022-09-09T03:15:07;2.55;;;0.60;;
37201;SDS011;37799;52.390;6.136;2022-09-09T03:17:33;2.83;;;0.52;;
37201;SDS011;37799;52.390;6.136;2022-09-09T03:19:59;3.72;;;0.90;;
37201;SDS011;37799;52.390;6.136;2022-09-09T03:22:24;3.33;;;0.70;;
37201;SDS011;37799;52.390;6.136;2022-09-09T03:24:53;3.40;;;0.90;;
37201;SDS011;37799;52.390;6.136;2022-09-09T03:27:18;3.55;;;0.70;;
37201;SDS011;37799;52.390;6.136;2022-09-09T03:29:44;3.63;;;0.50;;
37201;SDS011;37799;52.390;6.136;2022-09-09T03:32:10;2.65;;;0.63;;
37201;SDS011;37799;52.390;6.136;2022-09-09T03:34:35;5.80;;;1.00;;
37201;SDS011;37799;52.390;6.136;2022-09-09T03:37:03;4.80;;;1.10;;
37201;SDS011;37799;52.390;6.136;2022-09-09T03:39:30;3.90;;;0.73;;
37201;SDS011;37799;52.390;6.136;2022-09-09T03:41:55;4.10;;;0.93;;
37201;SDS011;37799;52.390;6.136;2022-09-09T03:44:20;4.38;;;0.85;;
37201;SDS011;37799;52.390;6.136;2022-09-09T03:46:45;5.25;;;1.33;;
37201;SDS011;37799;52.390;6.136;2022-09-09T03:49:11;4.65;;;1.13;;
37201;SDS011;37799;52.390;6.136;2022-09-09T03:51:36;6.35;;;1.42;;
37201;SDS011;37799;52.390;6.136;2022-09-09T03:54:01;6.30;;;1.30;;
37201;SDS011;37799;52.390;6.136;2022-09-09T03:56:29;4.25;;;0.82;;
37201;SDS011;37799;52.390;6.136;2022-09-09T03:58:55;5.38;;;1.23;;
37201;SDS011;37799;52.390;6.136;2022-09-09T04:01:20;2.10;;;0.73;;
37201;SDS011;37799;52.390;6.136;2022-09-09T04:03:45;3.47;;;1.00;;
37201;SDS011;37799;52.390;6.136;2022-09-09T04:06:12;5.38;;;0.95;;
37201;SDS011;37799;52.390;6.136;2022-09-09T04:08:39;3.13;;;0.73;;
37201;SDS011;37799;52.390;6.136;2022-09-09T04:11:05;5.35;;;0.82;;
37201;SDS011;37799;52.390;6.136;2022-09-09T04:13:31;3.40;;;0.80;;
37201;SDS011;37799;52.390;6.136;2022-09-09T04:16:00;3.67;;;0.90;;
37201;SDS011;37799;52.390;6.136;2022-09-09T04:18:27;3.75;;;0.80;;
37201;SDS011;37799;52.390;6.136;2022-09-09T04:20:55;3.75;;;0.85;;
37201;SDS011;37799;52.390;6.136;2022-09-09T04:23:22;2.88;;;0.50;;
37201;SDS011;37799;52.390;6.136;2022-09-09T04:25:50;6.43;;;1.17;;
37201;SDS011;37799;52.390;6.136;2022-09-09T04:28:18;4.30;;;1.02;;
37201;SDS011;37799;52.390;6.136;2022-09-09T04:30:45;4.55;;;1.10;;
37201;SDS011;37799;52.390;6.136;2022-09-09T04:33:10;4.25;;;1.30;;
37201;SDS011;37799;52.390;6.136;2022-09-09T04:35:37;5.45;;;1.10;;
37201;SDS011;37799;52.390;6.136;2022-09-09T04:38:03;3.75;;;1.00;;
37201;SDS011;37799;52.390;6.136;2022-09-09T04:40:30;4.18;;;1.15;;
37201;SDS011;37799;52.390;6.136;2022-09-09T04:43:00;22.00;;;1.40;;
37201;SDS011;37799;52.390;6.136;2022-09-09T04:45:28;4.20;;;1.05;;
37201;SDS011;37799;52.390;6.136;2022-09-09T04:47:53;4.15;;;0.98;;
37201;SDS011;37799;52.390;6.136;2022-09-09T04:50:19;4.40;;;1.10;;
37201;SDS011;37799;52.390;6.136;2022-09-09T04:52:44;3.25;;;0.88;;
37201;SDS011;37799;52.390;6.136;2022-09-09T04:55:10;6.05;;;1.65;;
37201;SDS011;37799;52.390;6.136;2022-09-09T04:57:35;4.07;;;1.13;;
37201;SDS011;37799;52.390;6.136;2022-09-09T05:00:01;3.08;;;0.75;;
37201;SDS011;37799;52.390;6.136;2022-09-09T05:02:28;5.60;;;0.90;;
37201;SDS011;37799;52.390;6.136;2022-09-09T05:04:53;5.28;;;1.02;;
37201;SDS011;37799;52.390;6.136;2022-09-09T05:07:19;5.32;;;1.00;;
37201;SDS011;37799;52.390;6.136;2022-09-09T05:09:44;4.45;;;1.10;;
37201;SDS011;37799;52.390;6.136;2022-09-09T05:12:10;5.50;;;1.40;;
37201;SDS011;37799;52.390;6.136;2022-09-09T05:14:36;4.30;;;0.98;;
37201;SDS011;37799;52.390;6.136;2022-09-09T05:17:02;5.28;;;1.20;;
37201;SDS011;37799;52.390;6.136;2022-09-09T05:19:28;3.75;;;0.93;;
37201;SDS011;37799;52.390;6.136;2022-09-09T05:21:53;4.82;;;1.08;;
37201;SDS011;37799;52.390;6.136;2022-09-09T05:24:19;4.85;;;1.33;;
37201;SDS011;37799;52.390;6.136;2022-09-09T05:26:44;3.63;;;1.17;;
37201;SDS011;37799;52.390;6.136;2022-09-09T05:29:10;4.53;;;1.08;;
37201;SDS011;37799;52.390;6.136;2022-09-09T05:31:35;4.13;;;0.98;;
37201;SDS011;37799;52.390;6.136;2022-09-09T05:34:00;5.45;;;1.33;;
37201;SDS011;37799;52.390;6.136;2022-09-09T05:36:25;3.60;;;1.00;;
37201;SDS011;37799;52.390;6.136;2022-09-09T05:38:51;3.70;;;1.02;;
37201;SDS011;37799;52.390;6.136;2022-09-09T05:41:18;4.22;;;0.88;;
37201;SDS011;37799;52.390;6.136;2022-09-09T05:43:44;3.03;;;0.85;;
37201;SDS011;37799;52.390;6.136;2022-09-09T05:46:12;4.40;;;1.00;;
37201;SDS011;37799;52.390;6.136;2022-09-09T05:48:40;2.92;;;0.68;;
37201;SDS011;37799;52.390;6.136;2022-09-09T05:51:07;7.03;;;1.00;;
37201;SDS011;37799;52.390;6.136;2022-09-09T05:53:35;4.75;;;0.82;;
37201;SDS011;37799;52.390;6.136;2022-09-09T05:56:02;3.50;;;0.90;;
37201;SDS011;37799;52.390;6.136;2022-09-09T05:58:30;3.60;;;0.82;;
37201;SDS011;37799;52.390;6.136;2022-09-09T06:01:05;6.47;;;1.20;;
37201;SDS011;37799;52.390;6.136;2022-09-09T06:03:39;5.38;;;0.93;;
37201;SDS011;37799;52.390;6.136;2022-09-09T06:06:06;4.82;;;1.35;;
37201;SDS011;37799;52.390;6.136;2022-09-09T06:08:33;3.78;;;1.50;;
37201;SDS011;37799;52.390;6.136;2022-09-09T06:13:31;5.18;;;1.20;;
37201;SDS011;37799;52.390;6.136;2022-09-09T06:15:57;4.72;;;0.90;;
37201;SDS011;37799;52.390;6.136;2022-09-09T06:18:23;4.22;;;0.88;;
37201;SDS011;37799;52.390;6.136;2022-09-09T06:20:58;3.90;;;0.90;;
37201;SDS011;37799;52.390;6.136;2022-09-09T06:23:31;3.88;;;1.50;;
37201;SDS011;37799;52.390;6.136;2022-09-09T06:26:01;4.10;;;0.75;;
37201;SDS011;37799;52.390;6.136;2022-09-09T06:28:28;3.60;;;0.60;;
37201;SDS011;37799;52.390;6.136;2022-09-09T06:31:03;2.53;;;0.63;;
37201;SDS011;37799;52.390;6.136;2022-09-09T06:33:31;4.93;;;1.00;;
37201;SDS011;37799;52.390;6.136;2022-09-09T06:35:59;3.92;;;0.82;;
37201;SDS011;37799;52.390;6.136;2022-09-09T06:38:24;4.32;;;1.05;;
37201;SDS011;37799;52.390;6.136;2022-09-09T06:40:51;3.30;;;0.80;;
37201;SDS011;37799;52.390;6.136;2022-09-09T06:43:19;4.90;;;1.00;;
37201;SDS011;37799;52.390;6.136;2022-09-09T06:45:52;4.95;;;1.00;;
37201;SDS011;37799;52.390;6.136;2022-09-09T06:48:24;7.13;;;0.85;;
37201;SDS011;37799;52.390;6.136;2022-09-09T06:50:51;3.78;;;0.80;;
37201;SDS011;37799;52.390;6.136;2022-09-09T06:53:30;3.20;;;0.65;;
37201;SDS011;37799;52.390;6.136;2022-09-09T06:55:58;3.80;;;1.35;;
37201;SDS011;37799;52.390;6.136;2022-09-09T06:58:24;5.45;;;1.17;;
37201;SDS011;37799;52.390;6.136;2022-09-09T07:00:49;3.95;;;1.23;;
37201;SDS011;37799;52.390;6.136;2022-09-09T07:03:14;3.78;;;1.00;;
37201;SDS011;37799;52.390;6.136;2022-09-09T07:05:40;4.38;;;0.95;;
37201;SDS011;37799;52.390;6.136;2022-09-09T07:08:05;3.03;;;0.80;;
37201;SDS011;37799;52.390;6.136;2022-09-09T07:10:30;3.63;;;1.05;;
37201;SDS011;37799;52.390;6.136;2022-09-09T07:12:56;3.47;;;0.88;;
37201;SDS011;37799;52.390;6.136;2022-09-09T07:15:21;2.63;;;0.70;;
37201;SDS011;37799;52.390;6.136;2022-09-09T07:17:47;3.53;;;0.70;;
37201;SDS011;37799;52.390;6.136;2022-09-09T07:20:13;3.75;;;0.80;;
37201;SDS011;37799;52.390;6.136;2022-09-09T07:22:39;6.00;;;1.20;;
37201;SDS011;37799;52.390;6.136;2022-09-09T07:25:05;3.30;;;0.98;;
37201;SDS011;37799;52.390;6.136;2022-09-09T07:27:31;3.53;;;0.82;;
37201;SDS011;37799;52.390;6.136;2022-09-09T07:29:56;4.17;;;0.93;;
37201;SDS011;37799;52.390;6.136;2022-09-09T07:32:22;3.17;;;0.60;;
37201;SDS011;37799;52.390;6.136;2022-09-09T07:34:47;3.40;;;0.85;;
37201;SDS011;37799;52.390;6.136;2022-09-09T07:37:13;3.97;;;0.73;;
37201;SDS011;37799;52.390;6.136;2022-09-09T07:39:39;4.35;;;0.75;;
37201;SDS011;37799;52.390;6.136;2022-09-09T07:42:04;3.10;;;0.75;;
37201;SDS011;37799;52.390;6.136;2022-09-09T07:44:30;5.28;;;0.95;;
37201;SDS011;37799;52.390;6.136;2022-09-09T07:46:59;4.40;;;1.20;;
37201;SDS011;37799;52.390;6.136;2022-09-09T07:49:25;4.55;;;0.93;;
37201;SDS011;37799;52.390;6.136;2022-09-09T07:51:50;2.05;;;0.60;;
37201;SDS011;37799;52.390;6.136;2022-09-09T07:54:16;4.38;;;0.80;;
37201;SDS011;37799;52.390;6.136;2022-09-09T07:56:45;2.83;;;0.70;;
37201;SDS011;37799;52.390;6.136;2022-09-09T07:59:11;4.43;;;0.90;;
37201;SDS011;37799;52.390;6.136;2022-09-09T08:01:39;3.83;;;0.65;;
37201;SDS011;37799;52.390;6.136;2022-09-09T08:04:08;2.15;;;0.68;;
37201;SDS011;37799;52.390;6.136;2022-09-09T08:06:42;1.67;;;0.50;;
37201;SDS011;37799;52.390;6.136;2022-09-09T08:09:11;2.88;;;0.60;;
37201;SDS011;37799;52.390;6.136;2022-09-09T08:11:37;3.10;;;0.50;;
37201;SDS011;37799;52.390;6.136;2022-09-09T08:14:04;3.17;;;0.50;;
37201;SDS011;37799;52.390;6.136;2022-09-09T08:16:30;1.52;;;0.40;;
37201;SDS011;37799;52.390;6.136;2022-09-09T08:18:57;2.58;;;0.75;;
37201;SDS011;37799;52.390;6.136;2022-09-09T08:21:24;3.47;;;0.60;;
37201;SDS011;37799;52.390;6.136;2022-09-09T08:23:53;2.08;;;0.70;;
37201;SDS011;37799;52.390;6.136;2022-09-09T08:26:20;3.17;;;0.35;;
37201;SDS011;37799;52.390;6.136;2022-09-09T08:28:47;1.83;;;0.40;;
37201;SDS011;37799;52.390;6.136;2022-09-09T08:31:15;3.72;;;0.65;;
37201;SDS011;37799;52.390;6.136;2022-09-09T08:33:43;3.58;;;0.80;;
37201;SDS011;37799;52.390;6.136;2022-09-09T08:36:11;3.83;;;0.50;;
37201;SDS011;37799;52.390;6.136;2022-09-09T08:38:40;3.53;;;0.55;;
37201;SDS011;37799;52.390;6.136;2022-09-09T08:49:24;2.05;;;0.40;;
37201;SDS011;37799;52.390;6.136;2022-09-09T08:51:55;2.28;;;0.43;;
37201;SDS011;37799;52.390;6.136;2022-09-09T08:54:22;1.95;;;0.30;;
37201;SDS011;37799;52.390;6.136;2022-09-09T08:56:48;2.30;;;0.77;;
37201;SDS011;37799;52.390;6.136;2022-09-09T08:59:15;2.65;;;0.40;;
37201;SDS011;37799;52.390;6.136;2022-09-09T09:01:47;2.53;;;0.38;;
37201;SDS011;37799;52.390;6.136;2022-09-09T09:04:26;2.10;;;0.32;;
37201;SDS011;37799;52.390;6.136;2022-09-09T09:07:24;2.05;;;0.40;;
37201;SDS011;37799;52.390;6.136;2022-09-09T09:12:41;3.25;;;0.30;;
37201;SDS011;37799;52.390;6.136;2022-09-09T09:15:11;1.08;;;0.30;;
37201;SDS011;37799;52.390;6.136;2022-09-09T09:17:42;3.08;;;0.57;;
37201;SDS011;37799;52.390;6.136;2022-09-09T09:20:12;0.95;;;0.30;;
37201;SDS011;37799;52.390;6.136;2022-09-09T09:22:43;1.92;;;0.38;;
37201;SDS011;37799;52.390;6.136;2022-09-09T09:25:22;1.60;;;0.30;;
37201;SDS011;37799;52.390;6.136;2022-09-09T09:30:36;0.77;;;0.30;;
37201;SDS011;37799;52.390;6.136;2022-09-09T09:33:18;0.70;;;0.20;;
37201;SDS011;37799;52.390;6.136;2022-09-09T09:35:55;2.08;;;0.30;;
37201;SDS011;37799;52.390;6.136;2022-09-09T09:38:22;2.87;;;0.30;;
37201;SDS011;37799;52.390;6.136;2022-09-09T09:40:49;3.05;;;0.30;;
37201;SDS011;37799;52.390;6.136;2022-09-09T09:43:20;3.70;;;0.40;;
37201;SDS011;37799;52.390;6.136;2022-09-09T09:48:15;2.23;;;0.30;;
37201;SDS011;37799;52.390;6.136;2022-09-09T09:50:51;2.00;;;0.67;;
37201;SDS011;37799;52.390;6.136;2022-09-09T09:53:20;1.38;;;0.28;;
37201;SDS011;37799;52.390;6.136;2022-09-09T09:55:57;1.35;;;0.30;;
37201;SDS011;37799;52.390;6.136;2022-09-09T09:58:29;1.48;;;0.40;;
37201;SDS011;37799;52.390;6.136;2022-09-09T10:00:58;2.40;;;0.20;;
37201;SDS011;37799;52.390;6.136;2022-09-09T10:03:28;2.95;;;0.40;;
37201;SDS011;37799;52.390;6.136;2022-09-09T10:06:02;2.90;;;0.35;;
37201;SDS011;37799;52.390;6.136;2022-09-09T10:08:29;2.22;;;0.50;;
37201;SDS011;37799;52.390;6.136;2022-09-09T10:11:16;2.53;;;0.40;;
37201;SDS011;37799;52.390;6.136;2022-09-09T10:14:02;2.72;;;0.20;;
37201;SDS011;37799;52.390;6.136;2022-09-09T10:19:31;0.95;;;0.20;;
37201;SDS011;37799;52.390;6.136;2022-09-09T10:24:52;0.65;;;0.10;;
37201;SDS011;37799;52.390;6.136;2022-09-09T10:32:41;2.67;;;0.52;;
37201;SDS011;37799;52.390;6.136;2022-09-09T10:35:29;2.05;;;0.30;;
37201;SDS011;37799;52.390;6.136;2022-09-09T10:46:03;2.13;;;0.30;;
37201;SDS011;37799;52.390;6.136;2022-09-09T10:48:56;2.63;;;0.15;;
37201;SDS011;37799;52.390;6.136;2022-09-09T10:51:28;2.97;;;0.30;;
37201;SDS011;37799;52.390;6.136;2022-09-09T10:56:51;2.13;;;0.30;;
37201;SDS011;37799;52.390;6.136;2022-09-09T10:59:23;3.13;;;0.30;;
37201;SDS011;37799;52.390;6.136;2022-09-09T11:02:39;0.93;;;0.30;;
37201;SDS011;37799;52.390;6.136;2022-09-09T11:09:54;0.40;;;0.17;;
37201;SDS011;37799;52.390;6.136;2022-09-09T11:12:24;1.85;;;0.32;;
37201;SDS011;37799;52.390;6.136;2022-09-09T11:15:07;1.60;;;0.20;;
37201;SDS011;37799;52.390;6.136;2022-09-09T11:18:01;2.03;;;0.30;;
37201;SDS011;37799;52.390;6.136;2022-09-09T11:20:29;1.02;;;0.15;;
37201;SDS011;37799;52.390;6.136;2022-09-09T11:25:35;1.27;;;0.25;;
37201;SDS011;37799;52.390;6.136;2022-09-09T11:36:21;1.13;;;0.30;;
37201;SDS011;37799;52.390;6.136;2022-09-09T11:38:51;2.95;;;0.40;;
37201;SDS011;37799;52.390;6.136;2022-09-09T11:41:18;1.30;;;0.17;;
37201;SDS011;37799;52.390;6.136;2022-09-09T11:46:11;0.85;;;0.40;;
37201;SDS011;37799;52.390;6.136;2022-09-09T11:48:41;1.90;;;0.20;;
37201;SDS011;37799;52.390;6.136;2022-09-09T11:51:34;1.83;;;0.20;;
37201;SDS011;37799;52.390;6.136;2022-09-09T11:54:00;1.02;;;0.20;;
37201;SDS011;37799;52.390;6.136;2022-09-09T11:56:31;0.20;;;0.10;;
37201;SDS011;37799;52.390;6.136;2022-09-09T11:59:24;0.75;;;0.20;;
37201;SDS011;37799;52.390;6.136;2022-09-09T12:01:55;0.98;;;0.22;;
37201;SDS011;37799;52.390;6.136;2022-09-09T12:12:04;0.32;;;0.15;;
37201;SDS011;37799;52.390;6.136;2022-09-09T12:17:10;2.05;;;0.30;;
37201;SDS011;37799;52.390;6.136;2022-09-09T12:19:44;2.35;;;0.40;;
37201;SDS011;37799;52.390;6.136;2022-09-09T12:25:00;2.05;;;0.20;;
37201;SDS011;37799;52.390;6.136;2022-09-09T12:27:46;2.15;;;0.38;;
37201;SDS011;37799;52.390;6.136;2022-09-09T12:30:16;1.60;;;0.30;;
37201;SDS011;37799;52.390;6.136;2022-09-09T12:32:42;1.65;;;0.20;;
37201;SDS011;37799;52.390;6.136;2022-09-09T12:35:10;1.60;;;0.40;;
37201;SDS011;37799;52.390;6.136;2022-09-09T12:37:52;1.77;;;0.32;;
37201;SDS011;37799;52.390;6.136;2022-09-09T12:43:00;2.30;;;1.13;;
37201;SDS011;37799;52.390;6.136;2022-09-09T12:45:27;1.02;;;0.20;;
37201;SDS011;37799;52.390;6.136;2022-09-09T12:50:29;2.30;;;0.50;;
37201;SDS011;37799;52.390;6.136;2022-09-09T12:53:10;1.30;;;0.13;;
37201;SDS011;37799;52.390;6.136;2022-09-09T12:55:48;1.00;;;0.15;;
37201;SDS011;37799;52.390;6.136;2022-09-09T12:58:15;0.68;;;0.20;;
37201;SDS011;37799;52.390;6.136;2022-09-09T13:00:50;1.38;;;0.20;;
37201;SDS011;37799;52.390;6.136;2022-09-09T13:03:17;1.23;;;0.20;;
37201;SDS011;37799;52.390;6.136;2022-09-09T13:05:45;1.08;;;0.20;;
37201;SDS011;37799;52.390;6.136;2022-09-09T13:08:12;2.05;;;0.40;;
37201;SDS011;37799;52.390;6.136;2022-09-09T13:11:01;2.55;;;0.20;;
37201;SDS011;37799;52.390;6.136;2022-09-09T13:13:28;0.63;;;0.10;;
37201;SDS011;37799;52.390;6.136;2022-09-09T13:15:58;3.30;;;0.22;;
37201;SDS011;37799;52.390;6.136;2022-09-09T13:18:29;0.20;;;0.10;;
37201;SDS011;37799;52.390;6.136;2022-09-09T13:20:56;2.28;;;0.28;;
37201;SDS011;37799;52.390;6.136;2022-09-09T13:23:23;1.00;;;0.20;;
37201;SDS011;37799;52.390;6.136;2022-09-09T13:26:19;0.68;;;0.10;;
37201;SDS011;37799;52.390;6.136;2022-09-09T13:28:49;1.67;;;0.32;;
37201;SDS011;37799;52.390;6.136;2022-09-09T13:31:28;1.92;;;0.32;;
37201;SDS011;37799;52.390;6.136;2022-09-09T13:33:56;0.80;;;0.10;;
37201;SDS011;37799;52.390;6.136;2022-09-09T13:36:29;0.60;;;0.20;;
37201;SDS011;37799;52.390;6.136;2022-09-09T13:38:56;0.93;;;0.20;;
37201;SDS011;37799;52.390;6.136;2022-09-09T13:41:26;1.05;;;0.10;;
37201;SDS011;37799;52.390;6.136;2022-09-09T13:43:56;1.85;;;0.47;;
37201;SDS011;37799;52.390;6.136;2022-09-09T13:46:35;1.73;;;0.22;;
37201;SDS011;37799;52.390;6.136;2022-09-09T13:49:17;0.55;;;0.20;;
37201;SDS011;37799;52.390;6.136;2022-09-09T13:51:49;2.25;;;0.40;;
37201;SDS011;37799;52.390;6.136;2022-09-09T13:54:18;0.68;;;0.22;;
37201;SDS011;37799;52.390;6.136;2022-09-09T13:56:45;2.05;;;0.40;;
37201;SDS011;37799;52.390;6.136;2022-09-09T13:59:15;0.90;;;0.30;;
37201;SDS011;37799;52.390;6.136;2022-09-09T14:01:43;1.65;;;0.30;;
37201;SDS011;37799;52.390;6.136;2022-09-09T14:04:09;1.55;;;0.20;;
37201;SDS011;37799;52.390;6.136;2022-09-09T14:06:35;0.90;;;0.20;;
37201;SDS011;37799;52.390;6.136;2022-09-09T14:09:03;0.80;;;0.28;;
37201;SDS011;37799;52.390;6.136;2022-09-09T14:11:29;2.97;;;0.30;;
37201;SDS011;37799;52.390;6.136;2022-09-09T14:13:55;2.85;;;0.30;;
37201;SDS011;37799;52.390;6.136;2022-09-09T14:16:20;1.35;;;0.30;;
37201;SDS011;37799;52.390;6.136;2022-09-09T14:18:46;2.60;;;0.25;;
37201;SDS011;37799;52.390;6.136;2022-09-09T14:21:12;0.73;;;0.20;;
37201;SDS011;37799;52.390;6.136;2022-09-09T14:23:38;0.77;;;0.20;;
37201;SDS011;37799;52.390;6.136;2022-09-09T14:26:04;1.98;;;0.40;;
37201;SDS011;37799;52.390;6.136;2022-09-09T14:28:30;0.73;;;0.15;;
37201;SDS011;37799;52.390;6.136;2022-09-09T14:30:58;0.60;;;0.15;;
37201;SDS011;37799;52.390;6.136;2022-09-09T14:33:24;1.30;;;0.20;;
37201;SDS011;37799;52.390;6.136;2022-09-09T14:35:54;1.35;;;0.20;;
37201;SDS011;37799;52.390;6.136;2022-09-09T14:38:24;1.88;;;0.52;;
37201;SDS011;37799;52.390;6.136;2022-09-09T14:40:49;0.45;;;0.17;;
37201;SDS011;37799;52.390;6.136;2022-09-09T14:43:15;0.95;;;0.20;;
37201;SDS011;37799;52.390;6.136;2022-09-09T14:45:40;1.27;;;0.30;;
37201;SDS011;37799;52.390;6.136;2022-09-09T14:48:05;2.07;;;0.80;;
37201;SDS011;37799;52.390;6.136;2022-09-09T14:50:30;1.92;;;0.45;;
37201;SDS011;37799;52.390;6.136;2022-09-09T14:52:56;1.83;;;0.50;;
37201;SDS011;37799;52.390;6.136;2022-09-09T14:55:21;2.10;;;0.30;;
37201;SDS011;37799;52.390;6.136;2022-09-09T14:57:46;0.80;;;0.25;;
37201;SDS011;37799;52.390;6.136;2022-09-09T15:00:12;2.08;;;0.13;;
37201;SDS011;37799;52.390;6.136;2022-09-09T15:02:38;1.05;;;0.20;;
37201;SDS011;37799;52.390;6.136;2022-09-09T15:05:03;2.70;;;0.37;;
37201;SDS011;37799;52.390;6.136;2022-09-09T15:07:29;0.43;;;0.10;;
37201;SDS011;37799;52.390;6.136;2022-09-09T15:09:56;1.02;;;0.20;;
37201;SDS011;37799;52.390;6.136;2022-09-09T15:12:21;0.60;;;0.20;;
37201;SDS011;37799;52.390;6.136;2022-09-09T15:14:46;0.60;;;0.20;;
37201;SDS011;37799;52.390;6.136;2022-09-09T15:17:13;2.83;;;0.43;;
37201;SDS011;37799;52.390;6.136;2022-09-09T15:19:38;1.23;;;0.30;;
37201;SDS011;37799;52.390;6.136;2022-09-09T15:22:04;1.80;;;0.60;;
37201;SDS011;37799;52.390;6.136;2022-09-09T15:24:30;1.38;;;0.30;;
37201;SDS011;37799;52.390;6.136;2022-09-09T15:26:56;1.60;;;0.38;;
37201;SDS011;37799;52.390;6.136;2022-09-09T15:29:22;1.85;;;0.38;;
37201;SDS011;37799;52.390;6.136;2022-09-09T15:31:48;1.25;;;0.20;;
37201;SDS011;37799;52.390;6.136;2022-09-09T15:34:13;0.90;;;0.17;;
37201;SDS011;37799;52.390;6.136;2022-09-09T15:36:45;0.32;;;0.10;;
37201;SDS011;37799;52.390;6.136;2022-09-09T15:39:14;1.15;;;0.40;;
37201;SDS011;37799;52.390;6.136;2022-09-09T15:41:41;0.65;;;0.28;;
37201;SDS011;37799;52.390;6.136;2022-09-09T15:44:09;2.30;;;0.22;;
37201;SDS011;37799;52.390;6.136;2022-09-09T15:46:41;1.35;;;0.17;;
37201;SDS011;37799;52.390;6.136;2022-09-09T15:49:18;0.47;;;0.10;;
37201;SDS011;37799;52.390;6.136;2022-09-09T15:51:55;1.08;;;0.20;;
37201;SDS011;37799;52.390;6.136;2022-09-09T15:54:23;0.95;;;0.20;;
37201;SDS011;37799;52.390;6.136;2022-09-09T15:56:54;0.52;;;0.10;;
37201;SDS011;37799;52.390;6.136;2022-09-09T15:59:22;1.42;;;0.20;;
37201;SDS011;37799;52.390;6.136;2022-09-09T16:01:48;1.38;;;0.25;;
37201;SDS011;37799;52.390;6.136;2022-09-09T16:04:16;1.25;;;0.35;;
37201;SDS011;37799;52.390;6.136;2022-09-09T16:06:47;0.68;;;0.20;;
37201;SDS011;37799;52.390;6.136;2022-09-09T16:09:13;2.60;;;0.35;;
37201;SDS011;37799;52.390;6.136;2022-09-09T16:11:38;0.63;;;0.20;;
37201;SDS011;37799;52.390;6.136;2022-09-09T16:14:04;1.75;;;0.55;;
37201;SDS011;37799;52.390;6.136;2022-09-09T16:16:31;1.90;;;0.30;;
37201;SDS011;37799;52.390;6.136;2022-09-09T16:18:58;3.60;;;0.63;;
37201;SDS011;37799;52.390;6.136;2022-09-09T16:21:25;2.70;;;0.63;;
37201;SDS011;37799;52.390;6.136;2022-09-09T16:23:54;1.00;;;0.20;;
37201;SDS011;37799;52.390;6.136;2022-09-09T16:26:20;1.23;;;0.30;;
37201;SDS011;37799;52.390;6.136;2022-09-09T16:28:47;0.95;;;0.28;;
37201;SDS011;37799;52.390;6.136;2022-09-09T16:31:14;1.80;;;0.30;;
37201;SDS011;37799;52.390;6.136;2022-09-09T16:33:44;1.27;;;0.30;;
37201;SDS011;37799;52.390;6.136;2022-09-09T16:36:14;0.60;;;0.20;;
37201;SDS011;37799;52.390;6.136;2022-09-09T16:38:41;1.08;;;0.30;;
37201;SDS011;37799;52.390;6.136;2022-09-09T16:41:08;2.70;;;0.45;;
37201;SDS011;37799;52.390;6.136;2022-09-09T16:43:35;2.78;;;0.40;;
37201;SDS011;37799;52.390;6.136;2022-09-09T16:46:01;0.55;;;0.13;;
37201;SDS011;37799;52.390;6.136;2022-09-09T16:48:40;1.80;;;0.65;;
37201;SDS011;37799;52.390;6.136;2022-09-09T16:51:07;1.67;;;0.22;;
37201;SDS011;37799;52.390;6.136;2022-09-09T16:53:36;0.68;;;0.20;;
37201;SDS011;37799;52.390;6.136;2022-09-09T16:56:08;1.77;;;0.25;;